createdAt,value
2023-03-30T00:01:27.107Z,5.50
2023-03-30T00:03:56.880Z,4.30
2023-03-30T00:06:26.885Z,7.30
2023-03-30T00:08:58.594Z,5.80
2023-03-30T00:11:34.553Z,7.60
2023-03-30T00:14:03.177Z,6.00
2023-03-30T00:16:32.272Z,4.90
2023-03-30T00:19:00.815Z,6.60
2023-03-30T00:21:33.894Z,6.80
2023-03-30T00:24:02.402Z,8.00
2023-03-30T00:26:31.265Z,7.20
2023-03-30T00:29:04.560Z,6.30
2023-03-30T00:31:33.387Z,6.40
2023-03-30T00:34:01.932Z,5.60
2023-03-30T00:36:37.415Z,5.20
2023-03-30T00:39:07.283Z,11.50
2023-03-30T00:41:36.868Z,6.30
2023-03-30T00:44:07.988Z,5.60
2023-03-30T00:46:36.940Z,6.20
2023-03-30T00:49:08.945Z,6.60
2023-03-30T00:51:38.903Z,5.70
2023-03-30T00:54:14.062Z,7.30
2023-03-30T00:56:43.406Z,7.40
2023-03-30T00:59:12.443Z,8.70
2023-03-30T01:01:42.308Z,8.30
2023-03-30T01:04:15.229Z,4.60
2023-03-30T01:06:46.684Z,8.60
2023-03-30T01:09:16.867Z,6.10
2023-03-30T01:11:47.541Z,5.70
2023-03-30T01:14:16.847Z,5.10
2023-03-30T01:16:49.105Z,4.70
2023-03-30T01:19:39.619Z,5.00
2023-03-30T01:22:24.406Z,6.60
2023-03-30T01:25:12.315Z,7.10
2023-03-30T01:27:46.530Z,5.60
2023-03-30T01:30:33.950Z,5.80
2023-03-30T01:33:09.781Z,6.50
2023-03-30T01:35:58.563Z,5.40
2023-03-30T01:38:42.495Z,7.00
2023-03-30T01:43:55.943Z,6.70
2023-03-30T01:46:31.043Z,4.70
2023-03-30T01:49:16.421Z,5.80
2023-03-30T01:51:59.474Z,5.80
2023-03-30T01:54:42.702Z,6.80
2023-03-30T01:57:31.982Z,6.40
2023-03-30T02:00:12.258Z,6.00
2023-03-30T02:03:12.023Z,5.40
2023-03-30T02:05:41.050Z,7.20
2023-03-30T02:08:18.744Z,6.80
2023-03-30T02:10:47.821Z,7.80
2023-03-30T02:13:17.032Z,5.60
2023-03-30T02:15:48.082Z,8.90
2023-03-30T02:18:17.363Z,3.70
2023-03-30T02:20:46.153Z,4.30
2023-03-30T02:23:17.804Z,5.60
2023-03-30T02:25:48.648Z,5.70
2023-03-30T02:28:25.103Z,10.00
2023-03-30T02:30:54.612Z,3.40
2023-03-30T02:33:59.547Z,7.70
2023-03-30T02:36:47.395Z,7.10
2023-03-30T02:39:50.962Z,4.90
2023-03-30T02:42:29.000Z,8.20
2023-03-30T02:45:13.757Z,7.30
2023-03-30T02:47:52.239Z,6.60
2023-03-30T02:50:47.614Z,3.30
2023-03-30T02:53:52.316Z,4.50
2023-03-30T02:56:38.296Z,4.70
2023-03-30T02:59:38.425Z,4.30
2023-03-30T03:02:13.345Z,3.70
2023-03-30T03:04:46.646Z,7.90
2023-03-30T03:07:24.968Z,5.40
2023-03-30T03:09:53.752Z,5.50
2023-03-30T03:12:23.967Z,7.60
2023-03-30T03:15:02.192Z,5.40
2023-03-30T03:17:35.170Z,8.70
2023-03-30T03:20:11.731Z,5.30
2023-03-30T03:22:41.751Z,12.00
2023-03-30T03:25:10.749Z,6.50
2023-03-30T03:27:58.787Z,6.60
2023-03-30T03:30:28.899Z,9.00
2023-03-30T03:33:08.474Z,9.00
2023-03-30T03:35:39.692Z,12.50
2023-03-30T03:38:09.185Z,8.40
2023-03-30T03:40:38.287Z,8.60
2023-03-30T03:43:07.487Z,10.00
2023-03-30T03:45:42.727Z,7.90
2023-03-30T03:48:11.715Z,8.00
2023-03-30T03:50:56.267Z,9.80
2023-03-30T03:55:56.200Z,6.70
2023-03-30T03:58:25.818Z,8.90
2023-03-30T04:01:01.884Z,6.30
2023-03-30T04:03:33.018Z,7.70
2023-03-30T04:06:02.830Z,6.20
2023-03-30T04:08:31.711Z,9.00
2023-03-30T04:11:24.659Z,8.60
2023-03-30T04:14:11.277Z,6.60
2023-03-30T04:17:15.182Z,6.50
2023-03-30T04:20:06.342Z,6.70
2023-03-30T04:22:46.553Z,4.80
2023-03-30T04:25:32.543Z,5.70
2023-03-30T04:28:07.165Z,6.00
2023-03-30T04:31:10.926Z,7.90
2023-03-30T04:33:47.005Z,6.10
2023-03-30T04:36:32.826Z,9.70
2023-03-30T04:39:11.920Z,3.80
2023-03-30T04:42:08.183Z,6.30
2023-03-30T04:44:55.500Z,8.40
2023-03-30T04:47:43.798Z,11.00
2023-03-30T04:50:32.615Z,6.50
2023-03-30T04:53:20.233Z,5.60
2023-03-30T04:56:08.898Z,7.30
2023-03-30T04:58:58.668Z,9.70
2023-03-30T05:01:47.035Z,8.00
2023-03-30T05:04:25.536Z,10.30
2023-03-30T05:06:54.323Z,7.10
2023-03-30T05:09:30.787Z,7.00
2023-03-30T05:12:23.332Z,7.60
2023-03-30T05:15:03.279Z,5.40
2023-03-30T05:17:44.480Z,6.80
2023-03-30T05:20:36.596Z,7.60
2023-03-30T05:23:24.837Z,8.90
2023-03-30T05:25:55.543Z,5.70
2023-03-30T05:28:43.520Z,7.00
2023-03-30T05:31:40.900Z,6.40
2023-03-30T05:34:22.893Z,6.10
2023-03-30T05:37:00.056Z,10.60
2023-03-30T05:39:38.158Z,8.00
2023-03-30T05:42:26.093Z,8.60
2023-03-30T05:45:13.826Z,6.50
2023-03-30T05:47:51.148Z,9.40
2023-03-30T05:50:41.000Z,6.70
2023-03-30T05:54:38.363Z,8.00
2023-03-30T05:57:38.790Z,7.70
2023-03-30T06:00:26.422Z,8.20
2023-03-30T06:03:14.789Z,8.80
2023-03-30T06:05:44.577Z,9.00
2023-03-30T06:08:13.973Z,9.20
2023-03-30T06:10:52.888Z,6.90
2023-03-30T06:13:21.495Z,9.10
2023-03-30T06:15:55.439Z,7.10
2023-03-30T06:18:27.470Z,5.60
2023-03-30T06:21:07.392Z,5.30
2023-03-30T06:23:49.332Z,6.00
2023-03-30T06:26:20.542Z,5.80
2023-03-30T06:28:51.965Z,8.10
2023-03-30T06:31:20.582Z,5.30
2023-03-30T06:33:53.758Z,5.00
2023-03-30T06:36:22.551Z,6.80
2023-03-30T06:39:12.028Z,6.20
2023-03-30T06:41:41.123Z,5.40
2023-03-30T06:44:18.099Z,4.70
2023-03-30T06:46:48.232Z,6.00
2023-03-30T06:49:17.187Z,6.60
2023-03-30T06:51:45.931Z,6.80
2023-03-30T06:54:15.400Z,4.80
2023-03-30T06:56:50.960Z,6.80
2023-03-30T06:59:20.376Z,7.90
2023-03-30T07:02:14.858Z,13.90
2023-03-30T07:05:02.170Z,9.10
2023-03-30T07:07:49.700Z,13.80
2023-03-30T07:10:18.887Z,10.30
2023-03-30T07:12:47.680Z,6.90
2023-03-30T07:15:17.188Z,10.90
2023-03-30T07:17:45.875Z,10.70
2023-03-30T07:20:16.813Z,18.20
2023-03-30T07:22:57.989Z,13.20
2023-03-30T07:25:27.292Z,14.10
2023-03-30T07:27:58.030Z,11.30
2023-03-30T07:30:27.719Z,10.20
2023-03-30T07:33:02.187Z,9.70
2023-03-30T07:35:31.373Z,9.10
2023-03-30T07:38:02.796Z,11.40
2023-03-30T07:40:37.566Z,11.90
2023-03-30T07:43:07.684Z,10.00
2023-03-30T07:45:41.349Z,8.60
2023-03-30T07:48:11.987Z,8.30
2023-03-30T07:50:40.990Z,7.30
2023-03-30T07:53:10.580Z,5.20
2023-03-30T07:55:39.637Z,5.00
2023-03-30T07:58:22.690Z,5.70
2023-03-30T08:00:51.191Z,8.40
2023-03-30T08:03:37.923Z,5.50
2023-03-30T08:06:06.980Z,8.50
2023-03-30T08:08:41.421Z,5.10
2023-03-30T08:11:11.473Z,5.20
2023-03-30T08:13:46.990Z,4.10
2023-03-30T08:16:15.869Z,6.90
2023-03-30T08:18:44.513Z,4.90
2023-03-30T08:21:13.632Z,6.20
2023-03-30T08:23:42.320Z,6.60
2023-03-30T08:26:11.150Z,5.70
2023-03-30T08:28:39.697Z,3.50
2023-03-30T08:31:08.577Z,5.20
2023-03-30T08:33:39.849Z,3.30
2023-03-30T08:36:08.371Z,2.90
2023-03-30T08:38:37.302Z,3.90
2023-03-30T08:41:24.831Z,6.20
2023-03-30T08:44:01.199Z,3.80
2023-03-30T08:46:29.755Z,2.50
2023-03-30T08:49:00.138Z,7.80
2023-03-30T08:51:31.869Z,5.60
2023-03-30T08:54:01.836Z,5.00
2023-03-30T08:56:35.829Z,11.30
2023-03-30T08:59:22.560Z,5.40
2023-03-30T09:02:09.715Z,4.70
2023-03-30T09:04:58.075Z,7.40
2023-03-30T09:07:28.077Z,6.00
2023-03-30T09:09:57.290Z,4.90
2023-03-30T09:12:44.325Z,7.30
2023-03-30T09:15:20.389Z,6.00
2023-03-30T09:18:01.093Z,5.40
2023-03-30T09:20:32.620Z,5.50
2023-03-30T09:23:02.382Z,2.30
2023-03-30T09:25:51.255Z,2.60
2023-03-30T09:28:29.140Z,2.90
2023-03-30T09:31:03.085Z,1.90
2023-03-30T09:33:46.016Z,3.90
2023-03-30T09:36:16.158Z,2.80
2023-03-30T09:38:50.636Z,3.70
2023-03-30T09:41:50.531Z,2.80
2023-03-30T09:45:07.140Z,3.30
2023-03-30T09:47:38.292Z,8.00
2023-03-30T09:50:24.089Z,4.50
2023-03-30T09:53:03.610Z,2.80
2023-03-30T09:55:35.672Z,5.40
2023-03-30T09:58:14.712Z,14.30
2023-03-30T10:00:43.107Z,4.00
2023-03-30T10:03:22.980Z,3.80
2023-03-30T10:06:07.764Z,4.00
2023-03-30T10:08:56.851Z,4.20
2023-03-30T10:11:42.189Z,3.00
2023-03-30T10:14:21.197Z,4.40
2023-03-30T10:16:49.460Z,2.60
2023-03-30T10:19:21.295Z,4.40
2023-03-30T10:21:49.982Z,3.80
2023-03-30T10:24:23.080Z,2.50
2023-03-30T10:27:13.096Z,4.50
2023-03-30T10:29:52.708Z,4.20
2023-03-30T10:32:22.992Z,6.60
2023-03-30T10:34:53.546Z,6.90
2023-03-30T10:37:34.858Z,6.20
2023-03-30T10:40:11.449Z,3.20
2023-03-30T10:42:39.883Z,4.30
2023-03-30T10:45:16.237Z,4.50
2023-03-30T10:48:24.158Z,5.00
2023-03-30T10:51:01.974Z,3.60
2023-03-30T10:53:33.313Z,5.60
2023-03-30T10:56:49.849Z,4.50
2023-03-30T10:59:42.869Z,4.00
2023-03-30T11:02:35.207Z,2.70
2023-03-30T11:05:10.822Z,2.80
2023-03-30T11:07:53.583Z,2.80
2023-03-30T11:10:29.646Z,2.40
2023-03-30T11:13:04.162Z,3.10
2023-03-30T11:15:50.664Z,4.50
2023-03-30T11:18:57.054Z,4.30
2023-03-30T11:21:56.975Z,3.20
2023-03-30T11:24:26.349Z,3.20
2023-03-30T11:27:09.775Z,2.70
2023-03-30T11:29:58.428Z,2.50
2023-03-30T11:32:32.625Z,3.70
2023-03-30T11:35:15.147Z,2.20
2023-03-30T11:38:05.977Z,2.80
2023-03-30T11:40:41.674Z,3.80
2023-03-30T11:43:11.944Z,3.90
2023-03-30T11:45:55.072Z,5.30
2023-03-30T11:48:42.990Z,4.80
2023-03-30T11:51:31.564Z,5.90
2023-03-30T11:54:31.159Z,3.60
2023-03-30T11:57:22.372Z,6.50
2023-03-30T12:00:23.110Z,3.60
2023-03-30T12:03:16.205Z,3.10
2023-03-30T12:05:56.519Z,1.40
2023-03-30T12:08:34.426Z,4.80
2023-03-30T12:11:28.257Z,3.20
2023-03-30T12:14:03.466Z,3.40
2023-03-30T12:16:52.338Z,3.20
2023-03-30T12:19:37.517Z,7.10
2023-03-30T12:22:47.928Z,5.30
2023-03-30T12:25:28.779Z,2.60
2023-03-30T12:28:12.784Z,2.20
2023-03-30T12:31:00.409Z,4.00
2023-03-30T12:33:34.598Z,2.50
2023-03-30T12:36:23.544Z,4.20
2023-03-30T12:38:57.528Z,3.40
2023-03-30T12:41:43.194Z,3.10
2023-03-30T12:44:20.946Z,3.20
2023-03-30T12:47:18.823Z,4.20
2023-03-30T12:50:27.871Z,3.30
2023-03-30T12:53:50.811Z,5.70
2023-03-30T12:57:09.200Z,2.90
2023-03-30T12:59:53.818Z,3.10
2023-03-30T13:02:39.554Z,4.00
2023-03-30T13:05:33.994Z,5.40
2023-03-30T13:08:08.279Z,3.10
2023-03-30T13:10:40.677Z,2.40
2023-03-30T13:13:17.885Z,4.20
2023-03-30T13:15:48.811Z,3.90
2023-03-30T13:18:17.206Z,2.90
2023-03-30T13:20:48.020Z,2.80
2023-03-30T13:23:20.092Z,5.60
2023-03-30T13:26:15.178Z,4.10
2023-03-30T13:28:55.205Z,2.30
2023-03-30T13:31:26.606Z,2.60
2023-03-30T13:34:34.186Z,2.50
2023-03-30T13:37:38.203Z,3.60
2023-03-30T13:40:24.542Z,3.60
2023-03-30T13:43:07.827Z,2.60
2023-03-30T13:46:17.541Z,4.40
2023-03-30T13:48:46.694Z,2.90
2023-03-30T13:51:20.181Z,2.60
2023-03-30T13:56:18.586Z,3.90
2023-03-30T13:58:51.495Z,4.70
2023-03-30T14:01:20.672Z,4.80
2023-03-30T14:04:00.614Z,3.00
2023-03-30T14:06:32.027Z,2.50
2023-03-30T14:09:06.710Z,7.10
2023-03-30T14:11:40.768Z,2.30
2023-03-30T14:14:25.862Z,2.90
2023-03-30T14:16:54.245Z,3.30
2023-03-30T14:19:35.012Z,2.70
2023-03-30T14:22:10.159Z,3.00
2023-03-30T14:24:39.291Z,2.30
2023-03-30T14:27:13.757Z,2.40
2023-03-30T14:29:46.555Z,2.60
2023-03-30T14:32:16.080Z,1.90
2023-03-30T14:34:48.637Z,3.50
2023-03-30T14:37:18.519Z,3.10
2023-03-30T14:39:51.190Z,2.80
2023-03-30T14:42:21.476Z,2.80
2023-03-30T14:44:52.476Z,2.20
2023-03-30T14:47:22.979Z,3.40
2023-03-30T14:49:52.231Z,3.40
2023-03-30T14:52:22.451Z,3.40
2023-03-30T14:55:05.208Z,2.80
2023-03-30T14:57:38.500Z,1.90
2023-03-30T15:00:21.342Z,2.90
2023-03-30T15:02:59.206Z,2.00
2023-03-30T15:05:36.514Z,2.30
2023-03-30T15:08:04.925Z,1.50
2023-03-30T15:10:56.553Z,2.20
2023-03-30T15:13:31.883Z,2.60
2023-03-30T15:16:00.275Z,3.90
2023-03-30T15:18:29.972Z,2.10
2023-03-30T15:21:01.134Z,3.80
2023-03-30T15:23:38.884Z,2.80
2023-03-30T15:26:07.410Z,3.60
2023-03-30T15:28:49.801Z,2.90
2023-03-30T15:31:21.193Z,2.70
2023-03-30T15:33:54.463Z,3.60
2023-03-30T15:36:25.193Z,4.90
2023-03-30T15:39:01.463Z,4.20
2023-03-30T15:41:52.425Z,3.40
2023-03-30T15:44:21.460Z,4.10
2023-03-30T15:46:51.456Z,2.70
2023-03-30T15:49:22.060Z,4.90
2023-03-30T15:51:53.293Z,4.50
2023-03-30T15:54:34.585Z,4.40
2023-03-30T15:57:10.210Z,2.20
2023-03-30T15:59:52.590Z,2.50
2023-03-30T16:02:32.438Z,2.60
2023-03-30T16:05:00.972Z,2.30
2023-03-30T16:07:31.446Z,2.90
2023-03-30T16:10:06.463Z,3.20
2023-03-30T16:12:41.681Z,4.10
2023-03-30T16:15:24.328Z,4.00
2023-03-30T16:17:53.178Z,5.40
2023-03-30T16:20:23.937Z,2.60
2023-03-30T16:22:52.532Z,5.20
2023-03-30T16:25:26.032Z,5.20
2023-03-30T16:28:03.309Z,5.20
2023-03-30T16:30:37.654Z,5.00
2023-03-30T16:33:06.713Z,6.30
2023-03-30T16:35:35.735Z,5.70
2023-03-30T16:38:05.124Z,4.90
2023-03-30T16:40:43.105Z,6.50
2023-03-30T16:43:11.826Z,6.40
2023-03-30T16:45:40.927Z,5.20
2023-03-30T16:48:12.598Z,5.10
2023-03-30T16:50:44.660Z,4.70
2023-03-30T16:53:13.104Z,4.00
2023-03-30T16:55:41.695Z,4.70
2023-03-30T16:58:15.861Z,2.90
2023-03-30T17:00:48.237Z,4.20
2023-03-30T17:03:18.297Z,2.90
2023-03-30T17:05:48.956Z,3.60
2023-03-30T17:08:23.960Z,4.20
2023-03-30T17:10:53.358Z,3.20
2023-03-30T17:13:29.522Z,3.50
2023-03-30T17:16:20.345Z,3.70
2023-03-30T17:18:48.597Z,4.20
2023-03-30T17:21:18.000Z,3.90
2023-03-30T17:23:48.002Z,3.90
2023-03-30T17:26:17.666Z,2.90
2023-03-30T17:28:46.840Z,3.20
2023-03-30T17:31:18.265Z,2.80
2023-03-30T17:33:50.951Z,3.30
2023-03-30T17:36:23.288Z,3.50
2023-03-30T17:38:52.110Z,7.40
2023-03-30T17:41:21.124Z,7.40
2023-03-30T17:43:49.802Z,8.30
2023-03-30T17:46:19.641Z,6.70
2023-03-30T17:48:48.389Z,5.90
2023-03-30T17:51:17.796Z,6.70
2023-03-30T17:53:46.929Z,11.60
2023-03-30T17:56:20.085Z,13.80
2023-03-30T17:58:49.787Z,15.00
2023-03-30T18:01:18.435Z,18.70
2023-03-30T18:03:47.923Z,19.90
2023-03-30T18:06:16.593Z,15.90
2023-03-30T18:08:45.473Z,13.20
2023-03-30T18:11:13.828Z,9.10
2023-03-30T18:13:42.359Z,7.90
2023-03-30T18:16:12.930Z,11.70
2023-03-30T18:18:42.346Z,6.10
2023-03-30T18:21:11.788Z,7.20
2023-03-30T18:23:44.034Z,8.80
2023-03-30T18:26:13.490Z,7.70
2023-03-30T18:28:44.074Z,4.90
2023-03-30T18:31:13.503Z,5.40
2023-03-30T18:33:41.936Z,10.40
2023-03-30T18:36:13.296Z,6.40
2023-03-30T18:38:42.563Z,7.40
2023-03-30T18:41:13.053Z,4.80
2023-03-30T18:43:44.051Z,8.50
2023-03-30T18:46:12.749Z,4.90
2023-03-30T18:48:41.941Z,6.10
2023-03-30T18:51:11.861Z,6.80
2023-03-30T18:53:42.823Z,6.50
2023-03-30T18:56:12.591Z,5.40
2023-03-30T18:58:43.046Z,7.40
2023-03-30T19:01:16.143Z,6.70
2023-03-30T19:03:45.360Z,9.60
2023-03-30T19:06:16.646Z,7.40
2023-03-30T19:08:45.089Z,9.70
2023-03-30T19:11:19.852Z,11.60
2023-03-30T19:13:48.245Z,10.50
2023-03-30T19:16:18.947Z,15.60
2023-03-30T19:18:49.602Z,16.10
2023-03-30T19:21:18.216Z,14.90
2023-03-30T19:23:46.826Z,18.00
2023-03-30T19:26:15.266Z,13.00
2023-03-30T19:28:47.740Z,10.30
2023-03-30T19:31:16.802Z,7.00
2023-03-30T19:33:45.418Z,6.70
2023-03-30T19:36:14.297Z,5.20
2023-03-30T19:38:44.394Z,5.50
2023-03-30T19:41:18.649Z,7.40
2023-03-30T19:43:50.269Z,5.30
2023-03-30T19:46:19.102Z,7.80
2023-03-30T19:48:47.793Z,6.50
2023-03-30T19:51:16.988Z,9.30
2023-03-30T19:53:47.808Z,10.40
2023-03-30T19:56:16.702Z,5.90
2023-03-30T19:58:45.475Z,10.30
2023-03-30T20:01:13.820Z,4.80
2023-03-30T20:03:43.611Z,6.60
2023-03-30T20:06:12.807Z,3.60
2023-03-30T20:08:41.719Z,5.10
2023-03-30T20:11:11.056Z,5.40
2023-03-30T20:13:45.588Z,6.90
2023-03-30T20:16:20.500Z,7.20
2023-03-30T20:18:53.344Z,4.70
2023-03-30T20:27:58.817Z,7.70
2023-03-30T20:30:27.668Z,8.20
2023-03-30T20:33:07.280Z,4.90
2023-03-30T20:35:37.378Z,5.10
2023-03-30T20:38:06.370Z,5.60
2023-03-30T20:40:35.931Z,5.80
2023-03-30T20:50:47.572Z,6.90
2023-03-30T20:53:17.299Z,3.80
2023-03-30T20:55:46.703Z,7.00
2023-03-30T20:58:15.162Z,6.20
2023-03-30T21:00:43.541Z,4.10
2023-03-30T21:03:15.560Z,5.00
2023-03-30T21:05:43.984Z,4.40
2023-03-30T21:08:14.208Z,5.60
2023-03-30T21:10:43.228Z,4.70
2023-03-30T21:13:12.091Z,4.20
2023-03-30T21:15:42.311Z,3.30
2023-03-30T21:18:11.019Z,5.50
2023-03-30T21:20:39.479Z,4.60
2023-03-30T21:23:09.231Z,5.00
2023-03-30T21:25:37.799Z,3.70
2023-03-30T21:28:07.785Z,4.60
2023-03-30T21:30:36.272Z,3.80
2023-03-30T21:33:05.642Z,5.00
2023-03-30T21:35:34.315Z,6.80
2023-03-30T21:38:04.175Z,4.10
2023-03-30T21:40:33.673Z,3.40
2023-03-30T21:43:02.153Z,5.90
2023-03-30T21:45:30.575Z,4.20
2023-03-30T21:47:59.224Z,8.00
2023-03-30T21:50:28.357Z,5.70
2023-03-30T21:52:58.350Z,4.10
2023-03-30T21:55:26.714Z,3.90
2023-03-30T21:57:55.454Z,6.00
2023-03-30T22:00:23.900Z,3.90
2023-03-30T22:02:53.842Z,5.20
2023-03-30T22:05:22.367Z,6.10
2023-03-30T22:07:50.948Z,5.10
2023-03-30T22:10:19.738Z,10.20
2023-03-30T22:12:56.041Z,5.30
2023-03-30T22:15:24.587Z,5.00
2023-03-30T22:17:52.869Z,5.30
2023-03-30T22:20:21.780Z,14.10
2023-03-30T22:22:50.333Z,4.60
2023-03-30T22:25:19.629Z,6.30
2023-03-30T22:27:50.628Z,5.40
2023-03-30T22:30:18.964Z,7.30
2023-03-30T22:32:48.584Z,3.90
2023-03-30T22:35:17.476Z,7.50
2023-03-30T22:37:45.931Z,7.00
2023-03-30T22:40:15.083Z,6.10
2023-03-30T22:42:43.493Z,5.70
2023-03-30T22:45:12.908Z,3.90
2023-03-30T22:47:41.989Z,6.40
2023-03-30T22:50:11.265Z,4.30
2023-03-30T22:52:40.704Z,5.10
2023-03-30T22:55:09.774Z,4.40
2023-03-30T22:57:38.292Z,10.90
2023-03-30T23:00:10.845Z,5.60
2023-03-30T23:02:41.420Z,5.30
2023-03-30T23:05:10.591Z,8.30
2023-03-30T23:07:39.474Z,5.50
2023-03-30T23:10:09.484Z,9.40
2023-03-30T23:12:39.606Z,7.50
2023-03-30T23:22:49.195Z,8.20
2023-03-30T23:25:17.895Z,6.40
2023-03-30T23:27:46.439Z,6.20
2023-03-30T23:30:15.630Z,7.20
2023-03-30T23:33:03.778Z,7.90
2023-03-30T23:35:32.529Z,5.70
2023-03-30T23:38:03.567Z,4.40
2023-03-30T23:40:31.942Z,9.40
2023-03-30T23:43:00.618Z,6.10
2023-03-30T23:45:29.121Z,7.70
2023-03-30T23:47:57.832Z,8.90
2023-03-30T23:50:28.797Z,4.40
2023-03-30T23:52:57.858Z,7.10
2023-03-30T23:55:26.381Z,4.50
2023-03-30T23:57:54.862Z,5.20
